createdAt,value
2023-03-31T00:00:24.044Z,60.92
2023-03-31T00:02:58.777Z,60.68
2023-03-31T00:05:33.412Z,60.19
2023-03-31T00:08:07.385Z,60.05
2023-03-31T00:10:46.729Z,59.95
2023-03-31T00:13:19.268Z,60.38
2023-03-31T00:15:57.499Z,60.01
2023-03-31T00:18:31.076Z,60.20
2023-03-31T00:21:14.723Z,60.25
2023-03-31T00:23:48.329Z,60.20
2023-03-31T00:26:23.169Z,59.90
2023-03-31T00:28:56.684Z,59.47
2023-03-31T00:31:29.911Z,59.78
2023-03-31T00:34:02.643Z,60.38
2023-03-31T00:36:36.966Z,59.51
2023-03-31T00:39:09.858Z,59.96
2023-03-31T00:41:42.762Z,59.47
2023-03-31T00:44:23.192Z,59.73
2023-03-31T00:47:01.559Z,59.48
2023-03-31T00:49:45.318Z,59.86
2023-03-31T00:52:37.610Z,59.31
2023-03-31T00:55:15.442Z,60.10
2023-03-31T00:57:48.732Z,59.99
2023-03-31T01:00:24.078Z,59.21
2023-03-31T01:03:02.361Z,60.17
2023-03-31T01:05:42.881Z,59.60
2023-03-31T01:08:18.143Z,59.67
2023-03-31T01:10:57.272Z,59.43
2023-03-31T01:13:31.840Z,60.05
2023-03-31T01:16:05.782Z,59.20
2023-03-31T01:18:40.062Z,59.58
2023-03-31T01:21:45.595Z,59.74
2023-03-31T01:24:52.043Z,60.08
2023-03-31T01:27:43.947Z,59.47
2023-03-31T01:30:40.872Z,59.50
2023-03-31T01:33:19.586Z,60.02
2023-03-31T01:36:31.963Z,59.65
2023-03-31T01:39:08.785Z,59.40
2023-03-31T01:41:53.196Z,59.12
2023-03-31T01:44:33.856Z,59.37
2023-03-31T01:47:22.818Z,59.69
2023-03-31T01:50:08.461Z,59.47
2023-03-31T01:52:56.035Z,59.45
2023-03-31T01:55:39.364Z,59.62
2023-03-31T01:58:18.239Z,59.58
2023-03-31T02:01:01.964Z,58.95
2023-03-31T02:03:41.920Z,59.35
2023-03-31T02:06:24.599Z,59.16
2023-03-31T02:09:04.714Z,59.56
2023-03-31T02:11:38.990Z,59.54
2023-03-31T02:14:18.783Z,59.26
2023-03-31T02:16:58.624Z,59.43
2023-03-31T02:19:40.261Z,59.06
2023-03-31T02:22:13.893Z,59.20
2023-03-31T02:24:47.544Z,59.22
2023-03-31T02:27:28.011Z,59.33
2023-03-31T02:30:00.957Z,59.46
2023-03-31T02:32:39.529Z,59.47
2023-03-31T02:35:21.809Z,58.94
2023-03-31T02:37:54.196Z,58.95
2023-03-31T02:40:27.862Z,59.29
2023-03-31T02:43:00.790Z,59.19
2023-03-31T02:45:50.917Z,59.36
2023-03-31T02:48:30.502Z,59.19
2023-03-31T02:51:09.060Z,58.83
2023-03-31T02:54:13.236Z,58.81
2023-03-31T02:57:28.804Z,59.74
2023-03-31T03:00:10.909Z,59.68
2023-03-31T03:02:55.813Z,59.22
2023-03-31T03:05:49.799Z,59.26
2023-03-31T03:09:42.368Z,59.76
2023-03-31T03:12:32.652Z,59.67
2023-03-31T03:15:14.401Z,59.28
2023-03-31T03:17:49.318Z,59.74
2023-03-31T03:20:22.930Z,58.94
2023-03-31T03:22:55.526Z,59.06
2023-03-31T03:25:30.359Z,59.17
2023-03-31T03:28:02.778Z,59.04
2023-03-31T03:30:35.218Z,59.43
2023-03-31T03:33:07.603Z,59.40
2023-03-31T03:35:39.941Z,59.22
2023-03-31T03:38:12.383Z,59.05
2023-03-31T03:40:44.692Z,58.79
2023-03-31T03:43:17.102Z,59.78
2023-03-31T03:45:52.666Z,59.09
2023-03-31T03:48:25.244Z,58.87
2023-03-31T03:51:02.701Z,59.25
2023-03-31T03:53:35.120Z,59.33
2023-03-31T03:56:07.778Z,58.83
2023-03-31T03:58:40.451Z,59.05
2023-03-31T04:01:12.986Z,59.28
2023-03-31T04:03:45.762Z,59.15
2023-03-31T04:06:18.194Z,59.11
2023-03-31T04:08:50.561Z,59.13
2023-03-31T04:11:23.740Z,59.08
2023-03-31T04:13:56.239Z,58.91
2023-03-31T04:16:28.662Z,59.30
2023-03-31T04:19:03.910Z,59.02
2023-03-31T04:21:58.827Z,59.17
2023-03-31T04:24:33.159Z,59.35
2023-03-31T04:27:07.538Z,58.87
2023-03-31T04:29:40.742Z,59.47
2023-03-31T04:32:15.054Z,59.56
2023-03-31T04:34:50.633Z,59.05
2023-03-31T04:37:28.342Z,58.99
2023-03-31T04:40:08.215Z,58.95
2023-03-31T04:42:40.631Z,59.41
2023-03-31T04:45:13.491Z,59.28
2023-03-31T04:47:45.901Z,59.15
2023-03-31T04:50:18.338Z,59.07
2023-03-31T04:52:50.843Z,59.04
2023-03-31T04:55:23.292Z,59.43
2023-03-31T04:57:56.121Z,59.76
2023-03-31T05:00:29.077Z,59.33
2023-03-31T05:03:01.967Z,59.65
2023-03-31T05:05:34.597Z,59.13
2023-03-31T05:08:07.209Z,59.15
2023-03-31T05:10:39.640Z,59.38
2023-03-31T05:13:12.144Z,58.85
2023-03-31T05:15:45.419Z,59.03
2023-03-31T05:18:17.927Z,59.33
2023-03-31T05:20:50.399Z,59.13
2023-03-31T05:23:22.971Z,58.86
2023-03-31T05:25:55.782Z,59.17
2023-03-31T05:28:28.631Z,59.13
2023-03-31T05:31:03.703Z,59.28
2023-03-31T05:33:40.447Z,58.72
2023-03-31T05:36:15.837Z,59.20
2023-03-31T05:38:48.376Z,58.89
2023-03-31T05:41:21.285Z,58.96
2023-03-31T05:43:53.723Z,59.17
2023-03-31T05:46:26.970Z,58.91
2023-03-31T05:48:59.176Z,59.36
2023-03-31T05:51:31.433Z,58.72
2023-03-31T05:54:03.937Z,59.31
2023-03-31T05:56:36.345Z,58.67
2023-03-31T05:59:08.802Z,59.38
2023-03-31T06:01:41.503Z,59.20
2023-03-31T06:04:14.173Z,59.39
2023-03-31T06:06:50.409Z,59.41
2023-03-31T06:09:22.943Z,59.78
2023-03-31T06:11:55.243Z,59.18
2023-03-31T06:14:28.443Z,59.54
2023-03-31T06:17:00.705Z,59.46
2023-03-31T06:19:32.938Z,59.72
2023-03-31T06:22:05.406Z,59.71
2023-03-31T06:24:37.759Z,59.47
2023-03-31T06:27:10.709Z,59.75
2023-03-31T06:29:42.977Z,59.79
2023-03-31T06:32:15.286Z,60.21
2023-03-31T06:34:47.742Z,60.12
2023-03-31T06:37:20.126Z,60.12
2023-03-31T06:39:52.542Z,60.42
2023-03-31T06:42:24.873Z,59.85
2023-03-31T06:44:57.210Z,60.08
2023-03-31T06:47:29.569Z,59.81
2023-03-31T06:50:02.171Z,60.20
2023-03-31T06:52:35.467Z,59.62
2023-03-31T06:55:08.878Z,60.17
2023-03-31T06:57:41.433Z,60.68
2023-03-31T07:00:14.459Z,60.04
2023-03-31T07:02:46.890Z,59.88
2023-03-31T07:05:20.153Z,60.34
2023-03-31T07:07:56.399Z,60.30
2023-03-31T07:10:30.326Z,60.47
2023-03-31T07:13:04.472Z,60.33
2023-03-31T07:15:37.929Z,60.72
2023-03-31T07:18:10.416Z,60.44
2023-03-31T07:20:43.858Z,61.04
2023-03-31T07:23:16.645Z,60.30
2023-03-31T07:25:49.532Z,60.37
2023-03-31T07:28:22.114Z,60.35
2023-03-31T07:30:54.515Z,60.78
2023-03-31T07:33:26.808Z,60.32
2023-03-31T07:36:10.835Z,60.77
2023-03-31T07:38:47.050Z,60.31
2023-03-31T07:41:21.323Z,59.90
2023-03-31T07:43:53.708Z,60.39
2023-03-31T07:46:28.072Z,60.28
2023-03-31T07:49:03.283Z,60.63
2023-03-31T07:51:36.065Z,60.13
2023-03-31T07:54:08.465Z,60.10
2023-03-31T07:56:41.397Z,60.46
2023-03-31T07:59:13.910Z,60.69
2023-03-31T08:01:46.821Z,59.93
2023-03-31T08:04:19.392Z,60.16
2023-03-31T08:06:51.851Z,60.04
2023-03-31T08:09:24.290Z,60.18
2023-03-31T08:11:56.866Z,59.87
2023-03-31T08:14:40.003Z,59.87
2023-03-31T08:17:13.810Z,60.29
2023-03-31T08:19:46.196Z,60.08
2023-03-31T08:22:20.921Z,60.52
2023-03-31T08:24:53.367Z,60.25
2023-03-31T08:27:26.252Z,59.95
2023-03-31T08:29:58.649Z,59.96
2023-03-31T08:32:32.405Z,60.08
2023-03-31T08:35:05.448Z,60.20
2023-03-31T08:37:38.877Z,59.43
2023-03-31T08:40:20.080Z,60.01
2023-03-31T08:43:16.643Z,60.48
2023-03-31T08:45:49.911Z,60.21
2023-03-31T08:48:26.147Z,59.70
2023-03-31T08:51:24.430Z,60.10
2023-03-31T08:53:59.803Z,59.39
2023-03-31T08:56:39.213Z,59.48
2023-03-31T08:59:27.433Z,59.93
2023-03-31T09:02:31.067Z,60.26
2023-03-31T09:05:43.220Z,59.51
2023-03-31T09:08:31.661Z,59.90
2023-03-31T09:11:10.870Z,59.72
2023-03-31T09:14:17.503Z,59.37
2023-03-31T09:17:02.551Z,59.81
2023-03-31T09:19:56.289Z,59.46
2023-03-31T09:22:35.914Z,59.70
2023-03-31T09:25:16.379Z,59.70
2023-03-31T09:27:51.131Z,59.47
2023-03-31T09:30:29.720Z,59.63
2023-03-31T09:33:14.825Z,59.39
2023-03-31T09:35:47.874Z,59.35
2023-03-31T09:38:22.912Z,59.47
2023-03-31T09:41:00.881Z,59.70
2023-03-31T09:43:38.506Z,59.41
2023-03-31T09:46:22.979Z,59.48
2023-03-31T09:49:02.114Z,59.49
2023-03-31T09:51:37.538Z,59.58
2023-03-31T09:54:16.154Z,59.54
2023-03-31T09:56:55.392Z,58.88
2023-03-31T09:59:34.309Z,59.12
2023-03-31T10:02:24.256Z,59.38
2023-03-31T10:04:56.772Z,59.15
2023-03-31T10:07:29.533Z,59.40
2023-03-31T10:10:02.501Z,59.07
2023-03-31T10:12:35.312Z,58.62
2023-03-31T10:15:25.736Z,59.61
2023-03-31T10:17:59.577Z,59.24
2023-03-31T10:20:37.110Z,59.55
2023-03-31T10:23:24.669Z,59.10
2023-03-31T10:25:57.372Z,59.28
2023-03-31T10:28:34.295Z,59.39
2023-03-31T10:31:08.714Z,59.34
2023-03-31T10:33:50.220Z,59.16
2023-03-31T10:36:27.385Z,59.49
2023-03-31T10:38:59.929Z,59.36
2023-03-31T10:41:33.359Z,59.00
2023-03-31T10:44:05.985Z,58.94
2023-03-31T10:46:49.693Z,58.79
2023-03-31T10:49:22.279Z,58.98
2023-03-31T10:51:57.691Z,58.86
2023-03-31T10:54:30.299Z,58.60
2023-03-31T10:57:05.733Z,59.00
2023-03-31T10:59:52.604Z,58.97
2023-03-31T11:02:59.536Z,59.25
2023-03-31T11:05:51.880Z,59.52
2023-03-31T11:08:33.257Z,58.96
2023-03-31T11:11:41.637Z,59.18
2023-03-31T11:14:21.887Z,58.61
2023-03-31T11:17:21.564Z,59.35
2023-03-31T11:20:15.478Z,59.19
2023-03-31T11:22:56.364Z,58.99
2023-03-31T11:25:29.761Z,59.06
2023-03-31T11:28:26.238Z,59.38
2023-03-31T11:31:09.011Z,58.82
2023-03-31T11:34:04.525Z,59.40
2023-03-31T11:36:44.655Z,58.86
2023-03-31T11:39:19.907Z,58.48
2023-03-31T11:42:00.574Z,58.51
2023-03-31T11:44:43.004Z,59.00
2023-03-31T11:47:22.487Z,58.66
2023-03-31T11:49:59.273Z,58.88
2023-03-31T11:52:39.835Z,58.90
2023-03-31T11:55:15.531Z,58.75
2023-03-31T11:57:57.117Z,58.96
2023-03-31T12:00:34.875Z,59.01
2023-03-31T12:03:33.489Z,58.31
2023-03-31T12:06:17.474Z,58.56
2023-03-31T12:09:05.669Z,58.33
2023-03-31T12:12:10.570Z,58.96
2023-03-31T12:14:54.575Z,59.16
2023-03-31T12:17:29.264Z,58.80
2023-03-31T12:20:10.648Z,59.27
2023-03-31T12:22:48.943Z,58.57
2023-03-31T12:25:28.338Z,58.99
2023-03-31T12:28:03.281Z,58.89
2023-03-31T12:30:42.341Z,58.69
2023-03-31T12:33:25.976Z,58.96
2023-03-31T12:36:04.693Z,59.21
2023-03-31T12:38:40.281Z,58.93
2023-03-31T12:41:38.748Z,58.95
2023-03-31T12:44:34.348Z,58.67
2023-03-31T12:47:37.699Z,58.84
2023-03-31T12:50:37.095Z,58.93
2023-03-31T12:53:35.765Z,59.00
2023-03-31T12:56:08.704Z,58.55
2023-03-31T12:58:43.766Z,58.90
2023-03-31T13:01:20.369Z,58.85
2023-03-31T13:04:20.401Z,59.35
2023-03-31T13:06:59.864Z,59.06
2023-03-31T13:09:41.541Z,58.62
2023-03-31T13:12:19.701Z,58.95
2023-03-31T13:14:54.623Z,58.32
2023-03-31T13:17:35.831Z,58.95
2023-03-31T13:20:26.496Z,58.96
2023-03-31T13:23:20.049Z,58.97
2023-03-31T13:25:56.377Z,59.44
2023-03-31T13:28:33.161Z,59.00
2023-03-31T13:31:09.291Z,59.82
2023-03-31T13:33:57.517Z,58.85
2023-03-31T13:36:34.119Z,58.59
2023-03-31T13:39:36.108Z,59.09
2023-03-31T13:42:27.322Z,58.84
2023-03-31T13:45:19.922Z,59.21
2023-03-31T13:48:19.150Z,59.10
2023-03-31T13:51:11.443Z,58.81
2023-03-31T13:54:05.131Z,59.20
2023-03-31T13:57:15.009Z,58.92
2023-03-31T14:00:24.013Z,59.02
2023-03-31T14:03:18.614Z,59.26
2023-03-31T14:06:02.163Z,59.34
2023-03-31T14:08:55.711Z,58.90
2023-03-31T14:11:31.428Z,59.29
2023-03-31T14:14:18.316Z,58.98
2023-03-31T14:17:01.589Z,59.04
2023-03-31T14:20:11.040Z,59.31
2023-03-31T14:22:56.361Z,58.56
2023-03-31T14:25:57.233Z,58.40
2023-03-31T14:28:48.241Z,58.70
2023-03-31T14:31:38.757Z,58.40
2023-03-31T14:34:17.037Z,59.04
2023-03-31T14:37:00.476Z,58.60
2023-03-31T14:39:37.818Z,58.83
2023-03-31T14:42:23.382Z,59.07
2023-03-31T14:45:03.670Z,58.73
2023-03-31T14:47:36.127Z,58.98
2023-03-31T14:50:19.103Z,58.62
2023-03-31T14:52:52.703Z,58.72
2023-03-31T14:55:39.311Z,58.97
2023-03-31T14:58:31.901Z,58.99
2023-03-31T15:01:07.123Z,58.60
2023-03-31T15:03:42.317Z,58.94
2023-03-31T15:06:16.583Z,58.56
2023-03-31T15:08:49.862Z,58.72
2023-03-31T15:11:22.463Z,59.32
2023-03-31T15:16:45.190Z,58.96
2023-03-31T15:19:21.306Z,59.39
2023-03-31T15:22:06.136Z,59.26
2023-03-31T15:24:38.601Z,59.45
2023-03-31T15:27:34.019Z,59.57
2023-03-31T15:30:19.096Z,59.83
2023-03-31T15:32:53.421Z,59.05
2023-03-31T15:35:33.298Z,59.41
2023-03-31T15:38:06.664Z,59.03
2023-03-31T15:40:43.049Z,59.09
2023-03-31T15:45:55.598Z,58.60
2023-03-31T15:48:39.171Z,58.58
2023-03-31T15:51:18.781Z,58.76
2023-03-31T15:53:53.849Z,59.09
2023-03-31T15:56:34.934Z,58.56
2023-03-31T15:59:37.829Z,58.83
2023-03-31T16:02:47.443Z,59.02
2023-03-31T16:06:02.410Z,58.88
2023-03-31T16:08:44.746Z,58.91
2023-03-31T16:11:25.895Z,58.85
2023-03-31T16:14:01.791Z,59.24
2023-03-31T16:16:34.889Z,58.81
2023-03-31T16:19:10.452Z,59.19
2023-03-31T16:21:47.561Z,59.30
2023-03-31T16:24:31.010Z,59.07
2023-03-31T16:27:06.894Z,59.20
2023-03-31T16:29:40.067Z,59.25
2023-03-31T16:32:21.754Z,59.21
2023-03-31T16:35:01.324Z,59.10
2023-03-31T16:37:33.639Z,59.19
2023-03-31T16:40:07.139Z,59.32
2023-03-31T16:42:39.436Z,59.23
2023-03-31T16:45:14.996Z,59.53
2023-03-31T16:47:47.565Z,59.60
2023-03-31T16:50:19.994Z,59.76
2023-03-31T16:52:52.485Z,59.29
2023-03-31T16:55:25.920Z,59.74
2023-03-31T16:58:02.891Z,59.44
2023-03-31T17:00:36.730Z,59.96
2023-03-31T17:03:10.611Z,59.52
2023-03-31T17:05:48.189Z,59.46
2023-03-31T17:08:22.477Z,59.60
2023-03-31T17:11:07.243Z,60.06
2023-03-31T17:13:41.804Z,60.04
2023-03-31T17:16:22.001Z,59.49
2023-03-31T17:19:01.741Z,59.66
2023-03-31T17:21:34.082Z,59.44
2023-03-31T17:24:09.163Z,59.72
2023-03-31T17:26:41.604Z,59.70
2023-03-31T17:29:15.515Z,59.34
2023-03-31T17:31:49.411Z,59.62
2023-03-31T17:34:22.179Z,59.69
2023-03-31T17:36:55.703Z,59.47
2023-03-31T17:39:28.176Z,59.87
2023-03-31T17:42:00.977Z,59.55
2023-03-31T17:44:33.686Z,59.31
2023-03-31T17:47:06.282Z,59.53
2023-03-31T17:49:38.813Z,59.36
2023-03-31T17:52:11.762Z,59.54
2023-03-31T17:54:44.838Z,59.67
2023-03-31T17:57:17.344Z,59.60
2023-03-31T17:59:49.794Z,59.97
2023-03-31T18:02:24.663Z,59.90
2023-03-31T18:04:57.267Z,59.92
2023-03-31T18:07:30.844Z,59.95
2023-03-31T18:10:08.207Z,59.65
2023-03-31T18:12:41.249Z,59.82
2023-03-31T18:15:13.547Z,59.92
2023-03-31T18:17:45.908Z,59.59
2023-03-31T18:20:19.495Z,59.88
2023-03-31T18:22:51.881Z,60.28
2023-03-31T18:25:24.666Z,60.11
2023-03-31T18:27:57.355Z,60.07
2023-03-31T18:30:29.860Z,60.22
2023-03-31T18:33:02.501Z,60.49
2023-03-31T18:35:35.984Z,60.67
2023-03-31T18:38:09.797Z,60.40
2023-03-31T18:40:49.202Z,60.26
2023-03-31T18:43:24.880Z,60.76
2023-03-31T18:45:58.857Z,61.25
2023-03-31T18:48:32.045Z,61.01
2023-03-31T18:51:04.877Z,61.15
2023-03-31T18:53:37.611Z,61.25
2023-03-31T18:56:10.392Z,61.13
2023-03-31T18:58:44.439Z,61.22
2023-03-31T19:01:18.658Z,61.18
2023-03-31T19:03:51.508Z,61.31
2023-03-31T19:06:24.330Z,61.20
2023-03-31T19:08:57.139Z,61.53
2023-03-31T19:11:29.787Z,61.78
2023-03-31T19:14:02.261Z,61.87
2023-03-31T19:16:41.663Z,61.42
2023-03-31T19:19:14.181Z,61.75
2023-03-31T19:21:47.262Z,62.26
2023-03-31T19:24:20.070Z,61.67
2023-03-31T19:26:52.903Z,61.88
2023-03-31T19:29:27.649Z,61.86
2023-03-31T19:32:00.628Z,61.86
2023-03-31T19:34:33.904Z,62.02
2023-03-31T19:37:06.801Z,62.41
2023-03-31T19:39:39.077Z,61.84
2023-03-31T19:42:11.575Z,62.27
2023-03-31T19:44:45.188Z,61.85
2023-03-31T19:47:18.112Z,61.73
2023-03-31T19:49:50.583Z,62.32
2023-03-31T19:52:23.154Z,62.25
2023-03-31T19:54:55.606Z,61.86
2023-03-31T19:57:28.235Z,61.97
2023-03-31T20:00:02.115Z,62.15
2023-03-31T20:02:37.654Z,61.87
2023-03-31T20:05:11.330Z,61.96
2023-03-31T20:07:43.655Z,61.99
2023-03-31T20:10:16.408Z,62.32
2023-03-31T20:12:51.705Z,61.87
2023-03-31T20:15:24.149Z,61.82
2023-03-31T20:17:57.090Z,61.96
2023-03-31T20:20:29.556Z,62.35
2023-03-31T20:23:03.531Z,62.69
2023-03-31T20:25:37.840Z,62.56
2023-03-31T20:28:10.378Z,63.10
2023-03-31T20:30:42.795Z,62.80
2023-03-31T20:33:16.766Z,62.83
2023-03-31T20:35:58.474Z,63.13
2023-03-31T20:38:31.019Z,63.68
2023-03-31T20:41:03.614Z,63.36
2023-03-31T20:43:36.908Z,63.19
2023-03-31T20:46:10.184Z,63.96
2023-03-31T20:48:48.738Z,63.44
2023-03-31T20:51:42.723Z,63.55
2023-03-31T20:54:15.675Z,63.44
2023-03-31T20:56:49.848Z,63.63
2023-03-31T20:59:23.212Z,63.62
2023-03-31T21:01:55.367Z,63.62
2023-03-31T21:04:27.902Z,63.52
2023-03-31T21:07:00.512Z,63.68
2023-03-31T21:09:33.103Z,63.64
2023-03-31T21:12:06.431Z,63.42
2023-03-31T21:14:38.988Z,63.55
2023-03-31T21:17:11.311Z,63.96
2023-03-31T21:19:43.607Z,63.59
2023-03-31T21:22:15.962Z,63.62
2023-03-31T21:24:48.320Z,63.36
2023-03-31T21:27:20.743Z,63.59
2023-03-31T21:29:53.221Z,63.38
2023-03-31T21:32:29.590Z,63.37
2023-03-31T21:35:01.983Z,63.39
2023-03-31T21:37:34.760Z,63.58
2023-03-31T21:40:07.964Z,63.32
2023-03-31T21:42:40.301Z,63.42
2023-03-31T21:45:13.310Z,63.67
2023-03-31T21:47:45.756Z,63.00
2023-03-31T21:50:18.313Z,63.14
2023-03-31T21:52:50.754Z,63.14
2023-03-31T21:55:23.264Z,63.21
2023-03-31T21:57:55.593Z,63.29
2023-03-31T22:00:28.344Z,63.44
2023-03-31T22:05:36.173Z,63.20
2023-03-31T22:08:08.517Z,63.21
2023-03-31T22:10:41.224Z,63.46
2023-03-31T22:13:13.640Z,62.87
2023-03-31T22:15:46.114Z,63.46
2023-03-31T22:18:19.080Z,62.83
2023-03-31T22:20:51.561Z,63.10
2023-03-31T22:23:24.360Z,63.50
2023-03-31T22:25:56.945Z,63.12
2023-03-31T22:28:29.217Z,62.97
2023-03-31T22:31:01.733Z,63.53
2023-03-31T22:33:34.107Z,63.20
2023-03-31T22:36:07.387Z,63.39
2023-03-31T22:38:39.714Z,62.96
2023-03-31T22:41:12.253Z,63.33
2023-03-31T22:43:45.997Z,63.19
2023-03-31T22:46:18.868Z,63.11
2023-03-31T22:48:51.224Z,63.22
2023-03-31T22:51:23.678Z,62.87
2023-03-31T22:53:56.624Z,63.10
2023-03-31T22:56:29.127Z,63.27
2023-03-31T22:59:02.380Z,63.03
2023-03-31T23:01:34.663Z,62.69
2023-03-31T23:04:07.112Z,62.66
2023-03-31T23:06:39.499Z,62.81
2023-03-31T23:09:11.881Z,62.88
2023-03-31T23:11:47.492Z,63.03
2023-03-31T23:14:20.037Z,62.55
2023-03-31T23:16:52.777Z,62.70
2023-03-31T23:19:25.215Z,63.04
2023-03-31T23:21:58.597Z,62.67
2023-03-31T23:24:31.001Z,62.73
2023-03-31T23:27:03.336Z,62.91
2023-03-31T23:29:36.251Z,62.67
2023-03-31T23:32:08.642Z,62.92
2023-03-31T23:34:41.959Z,62.87
2023-03-31T23:37:14.663Z,62.44
2023-03-31T23:39:46.937Z,62.47
2023-03-31T23:42:20.896Z,62.53
2023-03-31T23:44:53.298Z,62.84
2023-03-31T23:47:27.021Z,62.27
2023-03-31T23:49:59.671Z,62.72
2023-03-31T23:52:35.507Z,62.66
2023-03-31T23:55:08.578Z,62.59
2023-03-31T23:57:41.420Z,62.50
